Terminal Aerodrome Forecast
Issued by NWS Boston, MA

Home | Current Version | Previous Version | Text Only | Print | Product List | Glossary On
Versions: 1 2 3 4 5 6 7 8 9 10 11 12 13 14 15 16 17 18 19 20 21 22 23 24 25 26 27 28 29 30 31 32 33 34 35
000
FTUS41 KBOX 202326
TAFBOS
TAF
KBOS 202326Z 2100/2206 28010KT P6SM FEW070
     FM210300 28010KT P6SM BKN050
     FM211000 28012G25KT P6SM FEW050
     FM220500 28009KT P6SM SKC=

USA.gov is the U.S. government's official web portal to all federal, state and local government web resources and services.